Time;durP1;ratioP1;P1;durP2;ratioP2;P2;SDS_P1;SDS_P2;PMS_P1;PMS_P2;Temp;Humidity;BMP_temperature;BMP_pressure;BME280_temperature;BME280_humidity;BME280_pressure;Samples;Min_cycle;Max_cycle;Signal;HPM_P1;HPM_P2
2022/10/23 00:00:39;;;;;;;4.13;2.00;;;17.10;61.20;;;;;;5034626;28;20056;-51
2022/10/23 00:03:07;;;;;;;8.85;2.38;;;17.10;61.20;;;;;;5046719;28;20053;-49
2022/10/23 00:05:34;;;;;;;10.05;2.20;;;17.10;61.20;;;;;;5037168;28;20394;-52
2022/10/23 00:08:01;;;;;;;9.05;2.00;;;17.00;61.20;;;;;;5056286;28;21755;-52
2022/10/23 00:10:28;;;;;;;6.35;2.25;;;17.10;61.20;;;;;;5037035;28;20054;-52
2022/10/23 00:12:57;;;;;;;11.38;2.47;;;17.00;61.10;;;;;;5046860;28;20049;-52
2022/10/23 00:15:26;;;;;;;5.82;2.00;;;17.00;61.10;;;;;;5042613;28;20058;-48
2022/10/23 00:17:53;;;;;;;6.63;2.20;;;17.00;61.10;;;;;;5046278;28;20053;-51
2022/10/23 00:20:21;;;;;;;4.15;1.75;;;17.00;61.10;;;;;;5035653;28;20062;-51
2022/10/23 00:22:48;;;;;;;11.00;2.20;;;17.00;61.10;;;;;;5044279;28;20498;-51
2022/10/23 00:25:17;;;;;;;7.85;2.15;;;16.90;61.10;;;;;;5042597;28;20053;-50
2022/10/23 00:27:44;;;;;;;5.38;2.30;;;16.90;61.10;;;;;;5041617;28;20079;-52
2022/10/23 00:30:13;;;;;;;7.47;2.30;;;16.90;61.10;;;;;;5040922;28;20066;-52
2022/10/23 00:32:41;;;;;;;5.13;1.90;;;16.90;61.20;;;;;;5044723;28;20048;-50
2022/10/23 00:35:08;;;;;;;5.65;2.15;;;16.90;61.20;;;;;;5044396;28;20386;-52
2022/10/23 00:37:36;;;;;;;6.35;2.17;;;16.90;61.20;;;;;;5042301;28;20045;-51
2022/10/23 00:40:04;;;;;;;8.85;2.92;;;16.90;61.20;;;;;;5038993;28;20401;-52
2022/10/23 00:42:31;;;;;;;4.90;2.30;;;16.90;61.20;;;;;;5044761;28;20048;-51
2022/10/23 00:45:20;;;;;;;4.95;1.80;;;16.80;61.10;;;;;;5043796;28;20052;-51
2022/10/23 00:47:48;;;;;;;7.97;2.20;;;16.80;61.20;;;;;;5043244;28;20044;-50
2022/10/23 00:50:16;;;;;;;6.03;2.13;;;16.80;61.10;;;;;;5029011;28;20412;-48
2022/10/23 00:52:48;;;;;;;8.30;2.25;;;16.80;61.50;;;;;;5045617;28;20049;-50
2022/10/23 00:55:20;;;;;;;5.03;2.22;;;16.80;61.20;;;;;;5043256;28;20400;-52
2022/10/23 00:57:49;;;;;;;5.82;2.25;;;16.80;61.10;;;;;;5044181;28;20063;-50
2022/10/23 01:00:22;;;;;;;5.25;2.20;;;16.80;61.10;;;;;;5043066;28;20061;-52
2022/10/23 01:02:49;;;;;;;9.02;2.05;;;16.80;61.10;;;;;;5043521;28;20060;-50
2022/10/23 01:05:17;;;;;;;9.05;1.90;;;16.80;61.10;;;;;;5042197;28;20080;-51
2022/10/23 01:07:52;;;;;;;8.23;2.20;;;16.70;61.10;;;;;;5044291;28;20064;-51
2022/10/23 01:10:28;;;;;;;6.75;2.08;;;16.80;61.20;;;;;;5033240;28;20058;-51
2022/10/23 01:13:02;;;;;;;9.70;2.28;;;16.70;61.20;;;;;;5041377;28;20060;-51
2022/10/23 01:15:35;;;;;;;6.18;2.72;;;16.70;61.20;;;;;;5043641;28;20049;-49
2022/10/23 01:18:06;;;;;;;5.22;2.17;;;16.70;61.20;;;;;;5040861;28;20469;-50
2022/10/23 01:20:41;;;;;;;5.03;1.88;;;16.70;61.20;;;;;;5038448;28;20056;-48
2022/10/23 01:23:32;;;;;;;6.53;2.33;;;16.70;61.20;;;;;;5043670;28;20049;-47
2022/10/23 01:26:15;;;;;;;10.55;2.55;;;16.70;61.20;;;;;;5052342;28;20061;-51
2022/10/23 01:28:49;;;;;;;3.53;2.08;;;16.70;61.20;;;;;;5041684;28;20049;-52
2022/10/23 01:31:22;;;;;;;5.90;2.50;;;16.70;61.20;;;;;;5034705;28;20056;-51
2022/10/23 01:33:54;;;;;;;9.98;2.40;;;16.70;61.20;;;;;;5044062;28;20063;-52
2022/10/23 01:36:26;;;;;;;6.47;2.20;;;16.70;61.20;;;;;;5042176;28;20049;-49
2022/10/23 01:38:58;;;;;;;7.40;2.50;;;16.60;61.10;;;;;;5018427;28;20053;-48
2022/10/23 01:41:29;;;;;;;4.20;2.33;;;16.60;61.10;;;;;;5050895;28;20538;-51
2022/10/23 01:44:04;;;;;;;3.83;1.90;;;16.60;61.20;;;;;;5044418;28;20045;-51
2022/10/23 01:46:34;;;;;;;4.88;1.90;;;16.60;61.10;;;;;;5041840;28;20599;-50
2022/10/23 01:49:03;;;;;;;6.50;2.00;;;16.60;61.20;;;;;;5040402;28;20056;-52
2022/10/23 01:51:31;;;;;;;4.50;1.85;;;16.60;61.10;;;;;;5037543;28;20056;-52
2022/10/23 01:54:00;;;;;;;6.45;2.10;;;16.60;61.20;;;;;;5041047;28;20072;-52
2022/10/23 01:56:32;;;;;;;5.47;1.98;;;16.50;61.10;;;;;;5038349;28;20069;-48
2022/10/23 01:59:06;;;;;;;5.82;2.42;;;16.50;61.00;;;;;;5041880;28;20052;-50
2022/10/23 02:01:35;;;;;;;8.27;2.28;;;16.50;61.00;;;;;;5049753;28;20060;-52
2022/10/23 02:04:05;;;;;;;5.55;1.92;;;16.50;61.00;;;;;;5044276;28;20409;-52
2022/10/23 02:06:32;;;;;;;4.85;2.10;;;16.50;61.00;;;;;;5040199;28;20485;-51
2022/10/23 02:09:00;;;;;;;10.02;2.22;;;16.50;61.00;;;;;;5039251;28;20045;-51
2022/10/23 02:11:27;;;;;;;5.10;2.28;;;16.50;60.90;;;;;;5036034;28;20060;-50
2022/10/23 02:13:59;;;;;;;3.83;1.88;;;16.50;60.90;;;;;;5043201;28;20057;-50
2022/10/23 02:16:36;;;;;;;3.97;1.95;;;16.40;60.90;;;;;;5041378;28;20057;-51
2022/10/23 02:19:12;;;;;;;6.85;2.30;;;16.40;60.90;;;;;;5039993;28;20060;-51
2022/10/23 02:21:50;;;;;;;5.22;2.03;;;16.40;60.90;;;;;;5040469;28;20049;-51
2022/10/23 02:24:22;;;;;;;7.03;2.30;;;16.40;61.00;;;;;;5040361;28;20049;-50
2022/10/23 02:26:53;;;;;;;5.43;1.95;;;16.30;60.90;;;;;;5032024;28;20065;-52
2022/10/23 02:29:27;;;;;;;5.28;2.00;;;16.40;60.90;;;;;;5040178;28;20063;-50
2022/10/23 02:31:56;;;;;;;4.90;1.98;;;16.40;60.90;;;;;;5034057;28;20056;-49
2022/10/23 02:34:23;;;;;;;7.00;1.98;;;16.30;60.90;;;;;;5043229;28;20049;-48
2022/10/23 02:36:51;;;;;;;5.30;1.73;;;16.30;61.00;;;;;;5042167;28;20053;-49
2022/10/23 02:39:18;;;;;;;7.47;2.20;;;16.30;61.00;;;;;;5037525;28;20060;-49
2022/10/23 02:41:49;;;;;;;4.28;1.52;;;16.30;61.00;;;;;;5052402;28;20048;-49
2022/10/23 02:44:38;;;;;;;4.82;2.10;;;16.30;61.10;;;;;;5041357;28;20049;-52
2022/10/23 02:47:24;;;;;;;3.78;1.90;;;16.30;61.20;;;;;;5038670;28;20068;-48
2022/10/23 02:49:56;;;;;;;6.35;2.10;;;16.30;61.20;;;;;;5039586;28;20053;-53
2022/10/23 02:52:28;;;;;;;6.05;2.20;;;16.30;61.30;;;;;;5040946;28;20053;-47
2022/10/23 02:55:10;;;;;;;3.80;1.88;;;16.20;61.30;;;;;;5040997;28;20051;-48
2022/10/23 02:57:42;;;;;;;5.15;1.83;;;16.20;61.40;;;;;;5037824;28;20052;-47
2022/10/23 03:00:13;;;;;;;3.55;1.75;;;16.20;61.40;;;;;;5035902;28;20056;-49
2022/10/23 03:02:46;;;;;;;4.15;1.92;;;16.20;61.50;;;;;;5041231;28;20060;-51
2022/10/23 03:05:16;;;;;;;5.78;1.67;;;16.20;61.60;;;;;;5040006;28;20057;-51
2022/10/23 03:07:45;;;;;;;5.55;1.92;;;16.20;61.60;;;;;;5043291;28;20058;-51
2022/10/23 03:10:13;;;;;;;7.28;2.38;;;16.20;61.70;;;;;;5040791;28;20060;-51
2022/10/23 03:12:40;;;;;;;12.25;2.40;;;16.20;61.80;;;;;;5041162;28;20064;-52
2022/10/23 03:15:10;;;;;;;3.53;1.92;;;16.20;61.80;;;;;;5034469;28;20064;-49
2022/10/23 03:17:37;;;;;;;6.38;2.10;;;16.20;61.90;;;;;;5036827;28;20060;-51
2022/10/23 03:20:08;;;;;;;3.75;1.80;;;16.20;61.90;;;;;;5031158;28;20064;-52
2022/10/23 03:22:35;;;;;;;4.57;1.80;;;16.20;62.00;;;;;;5033907;28;20052;-46
2022/10/23 03:25:03;;;;;;;6.72;1.80;;;16.20;62.10;;;;;;5010611;28;20060;-49
2022/10/23 03:27:30;;;;;;;6.93;2.10;;;16.20;62.10;;;;;;5035873;28;20064;-51
2022/10/23 03:29:58;;;;;;;7.03;2.30;;;16.20;62.20;;;;;;5039432;28;20543;-50
2022/10/23 03:32:25;;;;;;;7.00;2.35;;;16.20;62.20;;;;;;5041907;28;20057;-51
2022/10/23 03:34:53;;;;;;;6.10;1.70;;;16.20;62.20;;;;;;5043272;28;20473;-50
2022/10/23 03:37:22;;;;;;;2.97;1.65;;;16.20;62.30;;;;;;5038276;28;20069;-51
2022/10/23 03:39:49;;;;;;;4.95;1.60;;;16.20;62.20;;;;;;5037526;28;20044;-51
2022/10/23 03:42:17;;;;;;;4.57;1.67;;;16.20;62.30;;;;;;5038752;28;20061;-52
2022/10/23 03:44:44;;;;;;;3.95;1.30;;;16.20;62.30;;;;;;5042061;28;20398;-51
2022/10/23 03:47:12;;;;;;;5.47;1.65;;;16.20;62.40;;;;;;5037638;28;20057;-51
2022/10/23 03:49:39;;;;;;;6.30;2.00;;;16.20;62.40;;;;;;5035323;28;20056;-50
2022/10/23 03:52:07;;;;;;;6.60;1.67;;;16.20;62.50;;;;;;5030254;28;20060;-50
2022/10/23 03:54:36;;;;;;;6.00;1.70;;;16.20;62.50;;;;;;5036475;28;20067;-51
2022/10/23 03:57:03;;;;;;;5.32;1.88;;;16.20;62.60;;;;;;5041272;28;20060;-50
2022/10/23 03:59:31;;;;;;;3.97;1.70;;;16.20;62.60;;;;;;5028263;28;20068;-49
2022/10/23 04:01:58;;;;;;;9.48;1.92;;;16.20;62.70;;;;;;5029044;28;20052;-51
2022/10/23 04:04:25;;;;;;;7.60;1.98;;;16.20;62.80;;;;;;5038125;28;20048;-50
2022/10/23 04:06:52;;;;;;;5.22;2.05;;;16.20;62.90;;;;;;5032868;28;20509;-50
2022/10/23 04:09:19;;;;;;;25.05;10.55;;;16.20;62.90;;;;;;5039851;28;20068;-52
2022/10/23 04:11:48;;;;;;;17.50;7.68;;;16.20;62.90;;;;;;5015282;28;20053;-48
2022/10/23 04:14:15;;;;;;;7.60;4.18;;;16.20;63.00;;;;;;5042668;28;20053;-50
2022/10/23 04:16:43;;;;;;;7.25;2.53;;;16.20;63.00;;;;;;5031803;28;20064;-48
2022/10/23 04:19:10;;;;;;;7.10;2.28;;;16.20;63.00;;;;;;5031956;28;20049;-48
2022/10/23 04:21:37;;;;;;;11.20;2.10;;;16.20;63.00;;;;;;5039417;28;20053;-52
2022/10/23 04:24:05;;;;;;;7.88;1.58;;;16.20;63.00;;;;;;5040675;28;20600;-51
2022/10/23 04:26:32;;;;;;;8.10;1.85;;;16.20;63.00;;;;;;5045989;28;20052;-49
2022/10/23 04:29:01;;;;;;;4.13;1.60;;;16.20;63.00;;;;;;5041543;28;20630;-51
2022/10/23 04:31:28;;;;;;;7.43;2.17;;;16.20;63.00;;;;;;5033827;28;20068;-49
2022/10/23 04:33:55;;;;;;;15.88;4.88;;;16.20;63.00;;;;;;5033061;28;20060;-49
2022/10/23 04:36:22;;;;;;;10.30;3.65;;;16.20;63.10;;;;;;5044607;28;20049;-50
2022/10/23 04:38:49;;;;;;;7.97;2.65;;;16.20;63.10;;;;;;5042303;28;20492;-48
2022/10/23 04:41:17;;;;;;;8.68;2.22;;;16.20;63.10;;;;;;5041568;28;20057;-52
2022/10/23 04:43:44;;;;;;;5.85;1.67;;;16.20;63.10;;;;;;5043560;28;20064;-51
2022/10/23 04:46:12;;;;;;;6.35;1.80;;;16.20;63.10;;;;;;5043228;28;20072;-49
2022/10/23 04:48:40;;;;;;;6.65;1.70;;;16.20;63.10;;;;;;5030137;28;20057;-51
2022/10/23 04:51:07;;;;;;;3.47;1.63;;;16.20;63.10;;;;;;5030858;28;20057;-50
2022/10/23 04:53:34;;;;;;;3.53;1.73;;;16.20;63.10;;;;;;5032355;28;20057;-50
2022/10/23 04:56:01;;;;;;;6.75;1.80;;;16.20;63.10;;;;;;5042338;28;20057;-52
2022/10/23 04:58:29;;;;;;;6.32;1.90;;;16.20;63.10;;;;;;5043602;28;20501;-52
2022/10/23 05:00:57;;;;;;;18.67;5.93;;;16.30;63.10;;;;;;5030804;28;20488;-48
2022/10/23 05:03:26;;;;;;;9.52;4.22;;;16.20;63.00;;;;;;5044472;28;20057;-51
2022/10/23 05:05:54;;;;;;;9.25;2.55;;;16.30;63.10;;;;;;5033896;28;20169;-52
2022/10/23 05:08:22;;;;;;;6.15;2.10;;;16.30;63.10;;;;;;5040844;28;20057;-48
2022/10/23 05:10:50;;;;;;;4.57;2.13;;;16.20;63.00;;;;;;5029544;28;20057;-52
2022/10/23 05:13:18;;;;;;;6.13;1.80;;;16.30;63.00;;;;;;5043466;28;20057;-51
2022/10/23 05:15:47;;;;;;;5.95;1.98;;;16.30;63.00;;;;;;5045545;28;20045;-47
2022/10/23 05:18:19;;;;;;;7.28;1.75;;;16.20;63.00;;;;;;5043893;28;20048;-49
2022/10/23 05:20:50;;;;;;;10.27;2.00;;;16.30;63.10;;;;;;5040269;28;20053;-49
2022/10/23 05:23:19;;;;;;;6.72;1.73;;;16.30;63.00;;;;;;5037595;28;20045;-51
2022/10/23 05:25:46;;;;;;;5.32;2.42;;;16.30;63.00;;;;;;5028696;28;20060;-49
2022/10/23 05:28:13;;;;;;;64.90;23.73;;;16.30;63.00;;;;;;5040301;28;20060;-48
2022/10/23 05:30:41;;;;;;;19.77;8.07;;;16.30;63.10;;;;;;5032983;28;20084;-51
2022/10/23 05:33:09;;;;;;;10.68;3.83;;;16.30;63.10;;;;;;5037870;28;20508;-51
2022/10/23 05:35:37;;;;;;;4.45;2.28;;;16.30;63.00;;;;;;5044464;28;20051;-51
2022/10/23 05:38:07;;;;;;;10.02;2.83;;;16.30;63.00;;;;;;5044369;28;20049;-51
2022/10/23 05:40:35;;;;;;;3.55;1.83;;;16.30;63.00;;;;;;5031655;28;20104;-47
2022/10/23 05:43:02;;;;;;;6.60;1.80;;;16.30;63.00;;;;;;5043890;28;20052;-49
2022/10/23 05:45:29;;;;;;;3.30;1.63;;;16.20;63.60;;;;;;5032176;28;20057;-48
2022/10/23 05:47:56;;;;;;;3.38;1.85;;;16.30;63.00;;;;;;5033088;28;20057;-50
2022/10/23 05:50:23;;;;;;;9.15;1.95;;;16.20;62.90;;;;;;5035135;28;20057;-50
2022/10/23 05:52:51;;;;;;;5.72;1.90;;;16.30;62.90;;;;;;5040299;28;20057;-50
2022/10/23 05:55:19;;;;;;;11.95;2.47;;;16.20;62.90;;;;;;5040711;28;20519;-48
2022/10/23 05:57:46;;;;;;;11.55;2.28;;;16.30;62.90;;;;;;5033025;28;20516;-48
2022/10/23 06:00:14;;;;;;;5.65;2.08;;;16.30;62.80;;;;;;5034586;28;20064;-51
2022/10/23 06:02:41;;;;;;;4.15;2.08;;;16.20;62.70;;;;;;5025593;28;20061;-51
2022/10/23 06:05:09;;;;;;;7.95;2.38;;;16.30;62.80;;;;;;5043329;28;20055;-52
2022/10/23 06:07:36;;;;;;;8.25;2.08;;;16.30;62.80;;;;;;5039801;28;20060;-51
2022/10/23 06:10:04;;;;;;;7.28;2.60;;;16.20;62.70;;;;;;5036778;28;20416;-52
2022/10/23 06:12:33;;;;;;;4.35;2.20;;;16.20;62.70;;;;;;5040200;28;20057;-51
2022/10/23 06:15:00;;;;;;;3.67;2.25;;;16.20;62.80;;;;;;5040072;28;20069;-52
2022/10/23 06:17:27;;;;;;;11.63;2.83;;;16.20;62.80;;;;;;5041875;28;20068;-52
2022/10/23 06:19:59;;;;;;;3.97;2.17;;;16.20;62.80;;;;;;5041886;28;20060;-52
2022/10/23 06:22:27;;;;;;;6.00;2.15;;;16.20;62.80;;;;;;5034675;28;20049;-52
2022/10/23 06:24:54;;;;;;;12.68;2.70;;;16.20;62.90;;;;;;5041064;28;20052;-50
2022/10/23 06:27:22;;;;;;;8.07;2.35;;;16.20;62.90;;;;;;5042153;28;20416;-52
2022/10/23 06:29:50;;;;;;;9.82;2.97;;;16.20;63.00;;;;;;5033898;28;20049;-52
2022/10/23 06:32:18;;;;;;;6.30;2.00;;;16.20;63.10;;;;;;5037952;28;20049;-49
2022/10/23 06:34:45;;;;;;;6.32;2.33;;;16.20;63.10;;;;;;5034609;28;20072;-50
2022/10/23 06:37:12;;;;;;;2.50;1.88;;;16.20;63.10;;;;;;5037884;28;20052;-51
2022/10/23 06:39:40;;;;;;;4.22;2.08;;;16.20;63.20;;;;;;5035682;28;20049;-51
2022/10/23 06:42:07;;;;;;;3.67;1.90;;;16.20;63.30;;;;;;5031181;28;20068;-52
2022/10/23 06:44:34;;;;;;;4.40;2.03;;;16.20;63.20;;;;;;5042926;28;20426;-52
2022/10/23 06:47:03;;;;;;;7.00;1.70;;;16.20;63.30;;;;;;5039571;28;20057;-49
2022/10/23 06:49:31;;;;;;;5.82;2.20;;;16.20;63.30;;;;;;5028976;28;20064;-51
2022/10/23 06:51:58;;;;;;;7.68;2.17;;;16.20;63.30;;;;;;5032719;28;20060;-50
2022/10/23 06:54:25;;;;;;;23.10;10.23;;;16.20;63.30;;;;;;5037956;28;20056;-51
2022/10/23 06:56:52;;;;;;;10.70;4.93;;;16.20;63.30;;;;;;5037618;28;20049;-50
2022/10/23 06:59:19;;;;;;;11.70;3.00;;;16.20;63.30;;;;;;5042287;28;20492;-51
2022/10/23 07:01:47;;;;;;;6.60;2.10;;;16.30;63.40;;;;;;5038536;28;20385;-51
2022/10/23 07:04:16;;;;;;;8.05;1.98;;;16.30;63.50;;;;;;5043253;28;20056;-51
2022/10/23 07:06:43;;;;;;;7.10;2.38;;;16.30;63.50;;;;;;5042609;28;20069;-50
2022/10/23 07:09:10;;;;;;;3.65;1.90;;;16.30;63.50;;;;;;5037771;28;21065;-52
2022/10/23 07:11:37;;;;;;;4.65;2.13;;;16.30;63.50;;;;;;5036676;28;20049;-52
2022/10/23 07:14:05;;;;;;;11.27;2.47;;;16.40;63.60;;;;;;5026044;28;20076;-51
2022/10/23 07:16:32;;;;;;;11.15;3.92;;;16.40;64.30;;;;;;5033900;28;20045;-51
2022/10/23 07:19:00;;;;;;;6.85;2.78;;;16.40;63.60;;;;;;5041207;28;20055;-50
2022/10/23 07:21:31;;;;;;;4.00;2.20;;;16.40;63.60;;;;;;5029744;28;20057;-51
2022/10/23 07:23:58;;;;;;;4.60;1.70;;;16.40;63.60;;;;;;5041052;28;20503;-52
2022/10/23 07:26:25;;;;;;;4.82;1.98;;;16.40;63.60;;;;;;5038923;28;20060;-50
2022/10/23 07:28:54;;;;;;;4.75;1.77;;;16.40;63.50;;;;;;5042930;28;20060;-51
2022/10/23 07:31:22;;;;;;;3.03;1.95;;;16.50;63.50;;;;;;5038965;28;20045;-50
2022/10/23 07:33:49;;;;;;;3.30;1.50;;;16.50;63.50;;;;;;5042913;28;20052;-51
2022/10/23 07:36:17;;;;;;;3.25;1.80;;;16.50;63.50;;;;;;5041490;28;20053;-50
2022/10/23 07:38:46;;;;;;;16.77;2.20;;;16.60;63.50;;;;;;5044975;28;20128;-51
2022/10/23 07:41:14;;;;;;;3.63;2.00;;;16.60;63.50;;;;;;5036564;28;20053;-52
2022/10/23 07:43:41;;;;;;;5.20;1.88;;;16.60;63.60;;;;;;5047805;28;20059;-51
2022/10/23 07:46:09;;;;;;;5.80;2.03;;;16.60;63.50;;;;;;5047227;28;20378;-49
2022/10/23 07:48:36;;;;;;;5.28;1.90;;;16.60;63.50;;;;;;5047134;28;20060;-50
2022/10/23 07:51:07;;;;;;;6.18;2.33;;;16.60;63.40;;;;;;5041799;28;20061;-50
2022/10/23 07:53:35;;;;;;;3.63;1.60;;;16.70;63.50;;;;;;5045309;28;20056;-48
2022/10/23 07:56:10;;;;;;;4.05;1.67;;;16.70;63.50;;;;;;5046244;28;20049;-52
2022/10/23 07:58:37;;;;;;;3.65;1.75;;;16.70;63.40;;;;;;5046030;28;20506;-48
2022/10/23 08:01:13;;;;;;;5.15;1.80;;;16.80;63.50;;;;;;5040684;28;20053;-52
2022/10/23 08:03:40;;;;;;;2.92;1.60;;;16.80;63.40;;;;;;5046110;28;20064;-49
2022/10/23 08:06:07;;;;;;;8.60;2.20;;;16.80;63.30;;;;;;5038655;28;20056;-48
2022/10/23 08:08:34;;;;;;;5.82;1.80;;;16.90;63.30;;;;;;5044506;28;20076;-52
2022/10/23 08:11:03;;;;;;;4.80;1.80;;;16.90;63.40;;;;;;5039096;28;20061;-48
2022/10/23 08:13:30;;;;;;;5.75;1.70;;;17.00;63.40;;;;;;5038965;28;20125;-52
2022/10/23 08:15:58;;;;;;;10.85;1.98;;;17.00;63.40;;;;;;5045281;28;20072;-51
2022/10/23 08:18:25;;;;;;;5.75;1.70;;;17.00;63.50;;;;;;5045707;28;20063;-50
2022/10/23 08:20:52;;;;;;;4.68;1.60;;;17.00;63.70;;;;;;5042034;28;20049;-51
2022/10/23 08:23:20;;;;;;;4.25;1.63;;;17.10;63.80;;;;;;5042640;28;20412;-52
2022/10/23 08:25:47;;;;;;;2.92;1.52;;;17.10;63.80;;;;;;5044108;28;20060;-51
2022/10/23 08:28:16;;;;;;;8.73;1.85;;;17.10;63.80;;;;;;5038681;28;20528;-52
2022/10/23 08:30:43;;;;;;;6.30;1.77;;;17.20;63.70;;;;;;5039084;28;20045;-52
2022/10/23 08:33:10;;;;;;;6.70;1.90;;;17.20;63.60;;;;;;5045494;28;20393;-52
2022/10/23 08:35:38;;;;;;;5.22;1.50;;;17.30;63.60;;;;;;5045708;28;20068;-51
2022/10/23 08:38:06;;;;;;;9.55;1.77;;;17.40;63.70;;;;;;5036611;28;20049;-52
2022/10/23 08:40:35;;;;;;;3.28;1.40;;;17.40;63.70;;;;;;5039613;28;20057;-51
2022/10/23 08:43:12;;;;;;;4.63;1.70;;;17.40;63.90;;;;;;5044503;28;20072;-52
2022/10/23 08:45:44;;;;;;;3.20;1.42;;;17.50;63.80;;;;;;5045207;28;20057;-53
2022/10/23 08:48:19;;;;;;;3.25;1.70;;;17.60;63.80;;;;;;5038102;28;20048;-51
2022/10/23 08:50:51;;;;;;;7.32;1.92;;;17.60;63.80;;;;;;5041346;28;20064;-51
2022/10/23 08:53:24;;;;;;;6.88;2.45;;;17.70;63.90;;;;;;5043009;28;20061;-48
2022/10/23 08:55:56;;;;;;;5.40;1.80;;;17.70;63.80;;;;;;5044853;28;20390;-51
2022/10/23 08:58:31;;;;;;;6.38;1.60;;;17.80;63.60;;;;;;5044550;28;20061;-51
2022/10/23 09:01:00;;;;;;;2.97;1.50;;;17.90;63.50;;;;;;5033808;28;20061;-48
2022/10/23 09:03:27;;;;;;;4.63;1.80;;;18.00;63.40;;;;;;5044908;28;20492;-52
2022/10/23 09:06:07;;;;;;;5.43;1.65;;;18.00;63.10;;;;;;5044624;28;20052;-50
2022/10/23 09:08:47;;;;;;;5.35;1.58;;;18.10;62.80;;;;;;5043791;28;20064;-50
2022/10/23 09:11:25;;;;;;;6.53;1.65;;;18.10;62.70;;;;;;5040859;28;20421;-51
2022/10/23 09:14:28;;;;;;;3.55;1.50;;;18.20;62.40;;;;;;5044628;28;20049;-49
2022/10/23 09:17:10;;;;;;;3.55;1.27;;;18.20;62.00;;;;;;5042263;28;20053;-52
2022/10/23 09:19:37;;;;;;;6.97;1.50;;;18.30;62.10;;;;;;5042612;28;20067;-52
2022/10/23 09:22:05;;;;;;;4.68;1.30;;;18.30;61.90;;;;;;5040864;28;20053;-51
2022/10/23 09:24:33;;;;;;;3.08;1.45;;;18.30;61.70;;;;;;5043024;28;20386;-52
2022/10/23 09:27:00;;;;;;;5.43;1.75;;;18.40;61.60;;;;;;5043115;28;20468;-50
2022/10/23 09:29:30;;;;;;;3.70;1.40;;;18.40;61.50;;;;;;5038960;28;20072;-50
2022/10/23 09:32:04;;;;;;;5.50;1.50;;;18.40;61.90;;;;;;5036065;28;20053;-48
2022/10/23 09:34:32;;;;;;;;;;;18.50;61.10;;;;;;5042896;28;20056;-52
2022/10/23 09:37:02;;;;;;;3.38;1.63;;;18.50;61.10;;;;;;5043457;28;19928;-51
2022/10/23 09:39:31;;;;;;;9.63;2.47;;;18.60;60.70;;;;;;5039699;28;20495;-49
2022/10/23 09:42:01;;;;;;;10.20;2.00;;;18.60;60.50;;;;;;5024737;28;20052;-52
2022/10/23 09:44:30;;;;;;;13.70;1.60;;;18.60;60.50;;;;;;5037002;28;20583;-51
2022/10/23 09:47:09;;;;;;;10.82;2.00;;;18.60;60.50;;;;;;5037654;28;20049;-49
2022/10/23 09:49:40;;;;;;;4.53;1.42;;;18.60;60.10;;;;;;5035013;28;20053;-49
2022/10/23 09:52:24;;;;;;;5.70;2.15;;;18.60;59.90;;;;;;5032542;28;20412;-49
2022/10/23 09:54:54;;;;;;;15.00;4.70;;;18.70;59.80;;;;;;5017531;28;20060;-52
2022/10/23 09:57:24;;;;;;;11.45;3.22;;;18.70;60.00;;;;;;5036045;28;20057;-51
2022/10/23 09:59:54;;;;;;;4.93;1.73;;;18.70;59.90;;;;;;5033578;28;20068;-51
2022/10/23 10:02:27;;;;;;;20.92;2.95;;;18.70;59.80;;;;;;5042138;28;20408;-48
2022/10/23 10:04:55;;;;;;;5.15;2.63;;;18.80;59.80;;;;;;5043591;28;20070;-51
2022/10/23 10:07:24;;;;;;;5.38;2.10;;;18.80;59.70;;;;;;5039196;28;20056;-52
2022/10/23 10:09:53;;;;;;;5.40;2.60;;;18.80;59.60;;;;;;5024572;28;20417;-50
2022/10/23 10:12:37;;;;;;;5.88;2.20;;;18.80;59.70;;;;;;5036981;28;20515;-49
2022/10/23 10:15:20;;;;;;;4.82;2.03;;;18.80;59.60;;;;;;5035958;28;20453;-50
2022/10/23 10:17:58;;;;;;;4.70;1.88;;;18.90;59.70;;;;;;5037072;28;20071;-52
2022/10/23 10:20:41;;;;;;;3.03;1.60;;;18.90;59.60;;;;;;5033432;28;20061;-51
2022/10/23 10:23:17;;;;;;;6.28;1.80;;;18.90;59.60;;;;;;5031457;28;20053;-46
2022/10/23 10:25:52;;;;;;;5.15;1.50;;;18.90;59.60;;;;;;5038215;28;20053;-52
2022/10/23 10:28:26;;;;;;;;;;;18.90;59.70;;;;;;5039157;28;20404;-48
2022/10/23 10:31:04;;;;;;;3.78;1.75;;;19.00;59.80;;;;;;5032719;28;19921;-51
2022/10/23 10:33:39;;;;;;;3.72;1.40;;;19.00;59.60;;;;;;5037153;28;20477;-47
2022/10/23 10:36:31;;;;;;;2.80;1.30;;;19.00;59.50;;;;;;5042536;28;20057;-52
2022/10/23 10:39:02;;;;;;;5.00;1.67;;;19.00;59.60;;;;;;5030174;28;20462;-49
2022/10/23 10:41:40;;;;;;;3.45;1.50;;;19.10;59.70;;;;;;5031721;28;20053;-49
2022/10/23 10:44:32;;;;;;;4.60;1.38;;;19.10;59.60;;;;;;5043302;28;20481;-50
2022/10/23 10:47:05;;;;;;;3.92;1.33;;;19.10;59.40;;;;;;5038935;28;20615;-50
2022/10/23 10:49:38;;;;;;;3.47;1.40;;;19.10;59.40;;;;;;5032279;28;20058;-51
2022/10/23 10:52:12;;;;;;;3.78;1.40;;;19.10;59.30;;;;;;5024521;28;20072;-51
2022/10/23 10:54:51;;;;;;;6.47;1.65;;;19.10;59.10;;;;;;5036796;28;20515;-49
2022/10/23 10:57:28;;;;;;;5.13;1.45;;;19.10;59.00;;;;;;5040179;28;20053;-52
2022/10/23 11:00:00;;;;;;;3.97;1.40;;;19.10;59.00;;;;;;5034746;28;20052;-52
2022/10/23 11:02:31;;;;;;;6.32;1.55;;;19.20;59.00;;;;;;5034198;28;20064;-50
2022/10/23 11:05:11;;;;;;;4.60;1.30;;;19.20;58.80;;;;;;5038201;28;20061;-50
2022/10/23 11:07:43;;;;;;;5.72;1.60;;;19.20;58.70;;;;;;5038391;28;20053;-50
2022/10/23 11:10:17;;;;;;;2.35;1.63;;;19.20;58.60;;;;;;5031979;28;20045;-49
2022/10/23 11:12:46;;;;;;;4.97;1.75;;;19.20;58.40;;;;;;5029772;28;20056;-51
2022/10/23 11:15:15;;;;;;;5.15;1.48;;;19.20;58.50;;;;;;5044106;28;20055;-47
2022/10/23 11:17:47;;;;;;;3.17;1.52;;;19.20;58.40;;;;;;5042962;28;20052;-53
2022/10/23 11:20:29;;;;;;;2.83;1.10;;;19.10;58.30;;;;;;5040552;28;20052;-53
2022/10/23 11:23:05;;;;;;;2.88;1.30;;;19.20;58.30;;;;;;5041533;28;20056;-51
2022/10/23 11:25:53;;;;;;;4.10;1.05;;;19.10;58.30;;;;;;5039511;28;20669;-52
2022/10/23 11:28:33;;;;;;;6.30;1.70;;;19.10;58.30;;;;;;5036956;28;20488;-52
2022/10/23 11:31:13;;;;;;;4.20;1.20;;;19.10;58.40;;;;;;5030836;28;20061;-50
2022/10/23 11:34:09;;;;;;;3.65;1.10;;;19.10;58.50;;;;;;5033883;28;20061;-50
2022/10/23 11:36:45;;;;;;;3.03;1.25;;;19.10;58.60;;;;;;5025483;28;20052;-50
2022/10/23 11:39:21;;;;;;;2.30;1.42;;;19.20;58.70;;;;;;5037538;28;20052;-52
2022/10/23 11:41:51;;;;;;;2.45;1.35;;;19.20;58.70;;;;;;5035210;28;20060;-49
2022/10/23 11:44:40;;;;;;;10.15;1.80;;;19.20;58.80;;;;;;5028142;28;20540;-50
2022/10/23 11:47:28;;;;;;;4.18;1.50;;;19.20;58.70;;;;;;5031687;28;20409;-52
2022/10/23 11:50:27;;;;;;;3.97;1.40;;;19.20;58.70;;;;;;5039482;28;20513;-50
2022/10/23 11:53:03;;;;;;;4.47;1.52;;;19.20;58.80;;;;;;5022316;28;20060;-50
2022/10/23 11:55:32;;;;;;;9.50;1.30;;;19.30;59.30;;;;;;5036588;28;20053;-52
2022/10/23 11:58:20;;;;;;;4.82;1.40;;;19.30;58.80;;;;;;5037147;28;20417;-52
2022/10/23 12:00:56;;;;;;;4.10;1.40;;;19.30;58.70;;;;;;5036169;28;20045;-49
2022/10/23 12:03:28;;;;;;;3.08;1.70;;;19.30;58.70;;;;;;5038945;28;20076;-51
2022/10/23 12:06:03;;;;;;;3.05;1.38;;;19.40;58.80;;;;;;5042051;28;20052;-52
2022/10/23 12:08:35;;;;;;;5.65;1.40;;;19.40;58.70;;;;;;5035801;28;20053;-48
2022/10/23 12:11:02;;;;;;;3.72;1.35;;;19.40;58.60;;;;;;5029515;28;20058;-50
2022/10/23 12:13:44;;;;;;;3.15;1.33;;;19.40;58.70;;;;;;5039572;28;20056;-51
2022/10/23 12:16:11;;;;;;;6.28;1.23;;;19.50;58.60;;;;;;5038057;28;20064;-52
2022/10/23 12:18:47;;;;;;;2.85;1.40;;;19.50;58.70;;;;;;5029495;28;20513;-49
2022/10/23 12:21:19;;;;;;;5.88;2.33;;;19.50;58.60;;;;;;5039144;28;20060;-51
2022/10/23 12:24:21;;;;;;;20.92;9.38;;;19.50;58.60;;;;;;5022155;28;20057;-50
2022/10/23 12:27:00;;;;;;;4.55;2.28;;;19.60;58.70;;;;;;5042166;28;20049;-51
2022/10/23 12:29:39;;;;;;;6.20;1.50;;;19.60;58.50;;;;;;5035149;28;20492;-46
2022/10/23 12:32:19;;;;;;;2.35;1.23;;;19.70;58.40;;;;;;5038296;28;20057;-50
2022/10/23 12:34:54;;;;;;;3.35;1.23;;;19.70;58.40;;;;;;5043349;28;20053;-52
2022/10/23 12:37:54;;;;;;;2.50;1.40;;;19.70;58.30;;;;;;5021522;28;20064;-49
2022/10/23 12:40:28;;;;;;;3.20;1.30;;;19.70;57.90;;;;;;5020742;28;20724;-51
2022/10/23 12:42:57;;;;;;;10.07;1.75;;;19.80;57.80;;;;;;5032054;28;20056;-52
2022/10/23 12:45:27;;;;;;;4.18;1.42;;;19.80;57.80;;;;;;5023470;28;20490;-50
2022/10/23 12:47:55;;;;;;;3.63;1.60;;;19.80;57.60;;;;;;5031246;28;20045;-52
2022/10/23 12:50:24;;;;;;;3.60;1.42;;;19.90;57.60;;;;;;5035687;28;21701;-51
2022/10/23 12:52:53;;;;;;;6.78;1.88;;;19.90;57.50;;;;;;5041702;28;20066;-51
2022/10/23 12:55:23;;;;;;;4.10;1.98;;;19.90;57.50;;;;;;5039255;28;20060;-51
2022/10/23 12:57:50;;;;;;;4.35;1.63;;;19.90;57.40;;;;;;5039858;28;20048;-51
2022/10/23 13:00:20;;;;;;;8.52;1.90;;;19.90;57.50;;;;;;5033373;28;20057;-50
2022/10/23 13:02:57;;;;;;;3.05;1.48;;;20.00;57.60;;;;;;5034396;28;20045;-51
2022/10/23 13:05:26;;;;;;;5.60;1.70;;;20.00;57.40;;;;;;5035181;28;20055;-53